Time;durP1;ratioP1;P1;durP2;ratioP2;P2;SDS_P1;SDS_P2;PMS_P1;PMS_P2;Temp;Humidity;BMP_temperature;BMP_pressure;BME280_temperature;BME280_humidity;BME280_pressure;Samples;Min_cycle;Max_cycle;Signal;HPM_P1;HPM_P2
2022/06/16 00:00:11;;;;;;;4.88;3.53;;;18.60;58.20;;;;;;4925619;28;20039;-79
2022/06/16 00:02:41;;;;;;;8.07;4.22;;;18.50;57.90;;;;;;4923605;28;20447;-80
2022/06/16 00:05:07;;;;;;;13.40;4.22;;;18.30;59.50;;;;;;4923440;28;20578;-80
2022/06/16 00:07:33;;;;;;;10.27;4.00;;;18.20;59.80;;;;;;4911270;28;20506;-80
2022/06/16 00:09:58;;;;;;;13.85;4.32;;;18.00;60.70;;;;;;4920983;28;20035;-80
2022/06/16 00:12:24;;;;;;;7.35;3.78;;;18.20;59.40;;;;;;4905690;28;20035;-79
2022/06/16 00:14:49;;;;;;;7.38;3.92;;;18.10;59.30;;;;;;4920150;29;20558;-80
2022/06/16 00:17:15;;;;;;;7.00;4.10;;;18.10;60.40;;;;;;4924772;29;20443;-80
2022/06/16 00:19:41;;;;;;;8.30;4.45;;;17.90;60.90;;;;;;4902302;29;20822;-79
2022/06/16 00:22:06;;;;;;;9.70;4.43;;;17.90;59.90;;;;;;4919841;28;20042;-79
2022/06/16 00:24:32;;;;;;;9.93;3.83;;;17.90;59.80;;;;;;4926176;28;20089;-80
2022/06/16 00:26:57;;;;;;;6.53;4.35;;;18.00;59.60;;;;;;4931901;28;20035;-80
2022/06/16 00:29:24;;;;;;;8.43;4.05;;;17.90;59.50;;;;;;4917796;29;20024;-80
2022/06/16 00:31:50;;;;;;;8.48;3.90;;;17.80;59.00;;;;;;4918459;28;20031;-80
2022/06/16 00:34:15;;;;;;;9.68;4.68;;;17.90;59.20;;;;;;4926326;28;20046;-79
2022/06/16 00:36:41;;;;;;;9.40;4.47;;;17.70;59.30;;;;;;4921765;29;20029;-79
2022/06/16 00:39:06;;;;;;;9.05;4.60;;;17.60;61.30;;;;;;4921395;28;20051;-80
2022/06/16 00:41:32;;;;;;;10.65;4.15;;;17.80;59.60;;;;;;4922873;28;20090;-79
2022/06/16 00:44:20;;;;;;;8.73;4.50;;;17.70;59.10;;;;;;4905274;28;20082;-79
2022/06/16 00:46:45;;;;;;;8.07;4.07;;;17.40;61.70;;;;;;4937491;28;20403;-79
2022/06/16 00:49:12;;;;;;;6.75;4.00;;;17.40;60.50;;;;;;4936730;28;20035;-79
2022/06/16 00:51:40;;;;;;;11.45;5.25;;;17.30;60.80;;;;;;4922125;28;20051;-79
2022/06/16 00:54:15;;;;;;;9.30;4.20;;;17.40;60.50;;;;;;4939234;28;20089;-79
2022/06/16 00:56:40;;;;;;;5.32;4.20;;;17.40;60.60;;;;;;4934335;28;20554;-79
2022/06/16 00:59:06;;;;;;;7.85;4.47;;;17.30;61.90;;;;;;4921560;28;20027;-79
2022/06/16 01:01:32;;;;;;;9.20;4.25;;;17.40;61.50;;;;;;4921174;28;20035;-79
2022/06/16 01:06:43;;;;;;;12.13;4.35;;;17.10;61.50;;;;;;4937273;28;20058;-79
2022/06/16 01:09:11;;;;;;;9.80;4.43;;;17.10;60.60;;;;;;4908533;28;20051;-79
2022/06/16 01:14:43;;;;;;;7.53;3.78;;;17.00;60.50;;;;;;4936799;29;20042;-79
2022/06/16 01:17:29;;;;;;;6.32;3.88;;;16.90;61.70;;;;;;4918160;28;20402;-79
2022/06/16 01:20:06;;;;;;;7.10;3.97;;;16.90;61.30;;;;;;4920461;28;20034;-78
2022/06/16 01:23:04;;;;;;;7.32;4.22;;;16.80;61.20;;;;;;4950818;28;20129;-78
2022/06/16 01:25:41;;;;;;;6.68;4.25;;;16.70;60.80;;;;;;4933112;28;20031;-78
2022/06/16 01:28:13;;;;;;;6.20;3.78;;;16.70;61.10;;;;;;4937391;28;20090;-78
2022/06/16 01:30:45;;;;;;;8.48;4.05;;;16.50;62.50;;;;;;4933992;28;20134;-78
2022/06/16 01:33:39;;;;;;;5.65;4.00;;;16.60;61.70;;;;;;4923705;28;20050;-78
2022/06/16 01:36:19;;;;;;;7.97;3.95;;;16.60;62.20;;;;;;4944857;28;20407;-78
2022/06/16 01:39:03;;;;;;;8.40;4.88;;;16.60;61.60;;;;;;4936211;29;20114;-78
2022/06/16 01:41:55;;;;;;;5.40;3.60;;;16.60;61.40;;;;;;4930373;28;20504;-77
2022/06/16 01:44:43;;;;;;;6.60;3.85;;;16.60;60.90;;;;;;4932162;28;20525;-77
2022/06/16 01:47:14;;;;;;;9.70;5.00;;;16.40;62.40;;;;;;4899895;29;20651;-77
2022/06/16 01:49:46;;;;;;;7.45;4.40;;;16.40;62.50;;;;;;4905966;29;20115;-77
2022/06/16 01:52:25;;;;;;;8.23;4.18;;;16.50;61.40;;;;;;4912489;28;20517;-77
2022/06/16 01:54:55;;;;;;;10.38;4.60;;;16.50;60.90;;;;;;4906680;28;20111;-77
2022/06/16 01:57:28;;;;;;;6.82;4.13;;;16.40;61.90;;;;;;4924998;28;20034;-77
2022/06/16 02:00:14;;;;;;;4.97;3.90;;;16.30;60.50;;;;;;4916846;28;20106;-77
2022/06/16 02:02:40;;;;;;;6.72;4.47;;;16.30;61.30;;;;;;4931476;28;20582;-77
2022/06/16 02:05:41;;;;;;;6.70;4.07;;;16.30;60.90;;;;;;4918855;28;20399;-77
2022/06/16 02:08:15;;;;;;;6.72;4.20;;;16.20;62.30;;;;;;4913569;28;20038;-77
2022/06/16 02:10:48;;;;;;;7.93;4.40;;;16.20;61.80;;;;;;4904085;29;20043;-77
2022/06/16 02:13:16;;;;;;;7.38;4.10;;;16.10;61.40;;;;;;4918097;28;20538;-76
2022/06/16 02:15:47;;;;;;;6.57;4.47;;;16.10;61.80;;;;;;4918307;28;20034;-77
2022/06/16 02:18:15;;;;;;;7.53;3.67;;;16.10;61.80;;;;;;4910858;28;20118;-77
2022/06/16 02:21:01;;;;;;;6.20;4.03;;;16.20;62.60;;;;;;4925412;28;20031;-77
2022/06/16 02:23:27;;;;;;;5.25;3.90;;;16.20;62.40;;;;;;4957071;28;20113;-77
2022/06/16 02:25:54;;;;;;;7.45;4.43;;;16.10;61.80;;;;;;4914998;28;20039;-77
2022/06/16 02:28:20;;;;;;;6.18;4.30;;;16.10;61.80;;;;;;4929202;28;20052;-77
2022/06/16 02:31:11;;;;;;;7.80;4.25;;;16.10;61.10;;;;;;4910052;28;20066;-77
2022/06/16 02:33:52;;;;;;;7.38;4.10;;;16.10;60.90;;;;;;4944864;28;20797;-78
2022/06/16 02:36:35;;;;;;;9.43;3.90;;;16.00;60.70;;;;;;4924906;28;20118;-78
2022/06/16 02:39:13;;;;;;;8.57;3.88;;;16.00;61.50;;;;;;4943180;28;20031;-77
2022/06/16 02:41:42;;;;;;;8.10;3.85;;;15.90;61.00;;;;;;4937814;28;20041;-77
2022/06/16 02:44:25;;;;;;;8.60;3.60;;;15.90;61.50;;;;;;4953292;28;20034;-77
2022/06/16 02:47:04;;;;;;;6.18;3.75;;;15.90;62.60;;;;;;4960601;28;20031;-77
2022/06/16 02:49:42;;;;;;;5.97;4.00;;;16.00;61.20;;;;;;4922041;29;20035;-77
2022/06/16 02:52:09;;;;;;;7.13;4.15;;;15.90;60.80;;;;;;4941539;28;20039;-77
2022/06/16 02:55:02;;;;;;;8.07;3.75;;;15.90;60.90;;;;;;4939477;28;20040;-77
2022/06/16 02:57:38;;;;;;;5.65;3.85;;;15.90;60.80;;;;;;4941721;28;20046;-77
2022/06/16 03:00:13;;;;;;;8.88;4.05;;;15.80;60.80;;;;;;4922220;28;20403;-77
2022/06/16 03:02:39;;;;;;;6.80;4.18;;;15.70;61.40;;;;;;4926708;28;20036;-77
2022/06/16 03:05:07;;;;;;;9.88;4.43;;;15.60;60.80;;;;;;4926296;28;20043;-78
2022/06/16 03:07:34;;;;;;;5.55;3.58;;;15.60;62.20;;;;;;4924689;28;20031;-77
2022/06/16 03:10:00;;;;;;;5.40;4.03;;;15.70;60.90;;;;;;4929967;28;20856;-78
2022/06/16 03:12:26;;;;;;;6.70;4.05;;;15.50;60.60;;;;;;4909634;28;20036;-78
2022/06/16 03:14:51;;;;;;;8.00;4.25;;;15.50;60.90;;;;;;4926483;28;20109;-78
2022/06/16 03:17:17;;;;;;;3.75;3.33;;;15.50;60.70;;;;;;4927120;28;20039;-78
2022/06/16 03:19:43;;;;;;;11.10;4.25;;;15.40;60.50;;;;;;4902130;29;20028;-78
2022/06/16 03:22:08;;;;;;;7.53;3.85;;;15.40;60.80;;;;;;4926768;28;20039;-78
2022/06/16 03:24:34;;;;;;;6.78;4.00;;;15.40;61.10;;;;;;4908623;28;20031;-78
2022/06/16 03:27:00;;;;;;;10.20;3.75;;;15.40;61.10;;;;;;4914613;28;20042;-78
2022/06/16 03:29:25;;;;;;;8.13;4.05;;;15.40;60.60;;;;;;4909931;28;20031;-77
2022/06/16 03:31:52;;;;;;;5.68;3.50;;;15.30;61.20;;;;;;4937565;28;20043;-78
2022/06/16 03:34:18;;;;;;;6.97;3.85;;;15.20;61.50;;;;;;4925433;28;20043;-77
2022/06/16 03:36:43;;;;;;;7.40;3.70;;;15.20;61.80;;;;;;4906528;28;20454;-78
2022/06/16 03:39:09;;;;;;;9.75;3.47;;;15.10;62.40;;;;;;4920105;29;20042;-78
2022/06/16 03:41:35;;;;;;;5.20;2.95;;;15.10;62.50;;;;;;4911718;28;20059;-78
2022/06/16 03:44:00;;;;;;;5.95;3.47;;;15.10;61.90;;;;;;4923979;28;20039;-78
2022/06/16 03:46:26;;;;;;;5.40;3.20;;;15.00;62.20;;;;;;4902535;28;20821;-78
2022/06/16 03:48:51;;;;;;;5.13;3.20;;;15.00;62.60;;;;;;4934360;29;20035;-78
2022/06/16 03:51:18;;;;;;;7.78;3.88;;;15.00;62.40;;;;;;4919413;28;20098;-78
2022/06/16 03:53:44;;;;;;;6.78;3.70;;;14.90;62.60;;;;;;4907421;28;20070;-77
2022/06/16 03:56:10;;;;;;;4.50;2.97;;;14.80;62.20;;;;;;4920532;28;20034;-78
2022/06/16 03:58:35;;;;;;;4.63;3.00;;;14.80;63.10;;;;;;4917394;28;20032;-77
2022/06/16 04:01:01;;;;;;;9.80;3.85;;;14.80;64.10;;;;;;4923116;28;20384;-78
2022/06/16 04:06:11;;;;;;;6.47;3.05;;;14.90;63.70;;;;;;4923451;28;20078;-78
2022/06/16 04:08:37;;;;;;;5.88;3.30;;;14.90;64.50;;;;;;4921717;28;20036;-77
2022/06/16 04:11:26;;;;;;;7.05;3.20;;;15.20;63.30;;;;;;4906139;28;20023;-78
2022/06/16 04:13:48;;;;;;;4.03;2.85;;;14.80;63.70;;;;;;4938540;28;20037;-78
2022/06/16 04:16:14;;;;;;;6.43;3.47;;;14.80;64.30;;;;;;4906317;28;20057;-78
2022/06/16 04:18:39;;;;;;;5.10;3.15;;;15.00;63.60;;;;;;4919702;28;20471;-77
2022/06/16 04:21:05;;;;;;;5.78;3.25;;;15.00;63.70;;;;;;4910077;28;20867;-77
2022/06/16 04:23:30;;;;;;;5.57;3.20;;;15.00;62.90;;;;;;4932836;28;20035;-78
2022/06/16 04:25:56;;;;;;;7.18;3.13;;;15.10;62.00;;;;;;4916282;29;20024;-78
2022/06/16 04:28:21;;;;;;;5.03;3.17;;;15.10;62.30;;;;;;4923816;28;20023;-78
2022/06/16 04:30:47;;;;;;;4.57;3.17;;;15.20;62.80;;;;;;4905526;28;20039;-78
2022/06/16 04:33:13;;;;;;;3.28;2.97;;;15.10;63.10;;;;;;4903456;28;20122;-77
2022/06/16 04:35:38;;;;;;;7.90;3.22;;;15.40;62.70;;;;;;4951234;28;20050;-78
2022/06/16 04:38:04;;;;;;;5.82;3.08;;;15.60;64.00;;;;;;4903829;28;20031;-77
2022/06/16 04:40:29;;;;;;;6.38;2.80;;;15.80;63.40;;;;;;4916948;28;20094;-78
2022/06/16 04:42:55;;;;;;;3.85;2.95;;;15.90;62.90;;;;;;4933026;28;20542;-77
2022/06/16 04:45:22;;;;;;;8.07;3.22;;;16.10;62.40;;;;;;4921677;28;20069;-76
2022/06/16 04:47:48;;;;;;;5.47;2.92;;;16.40;62.50;;;;;;4902286;28;20391;-76
2022/06/16 04:50:17;;;;;;;8.73;3.05;;;16.60;62.10;;;;;;4921098;28;20023;-77
2022/06/16 04:52:43;;;;;;;6.82;3.05;;;16.80;62.40;;;;;;4904928;29;20039;-77
2022/06/16 04:55:08;;;;;;;6.93;3.15;;;17.00;62.50;;;;;;4933749;29;20110;-76
2022/06/16 04:57:34;;;;;;;4.32;2.70;;;17.30;62.10;;;;;;4908575;28;20055;-76
2022/06/16 04:59:59;;;;;;;3.33;3.03;;;17.40;62.00;;;;;;4935612;28;20027;-77
2022/06/16 05:02:25;;;;;;;7.07;2.92;;;17.70;62.10;;;;;;4907223;28;20042;-77
2022/06/16 05:04:51;;;;;;;4.95;2.83;;;17.80;61.40;;;;;;4903177;28;20035;-77
2022/06/16 05:07:16;;;;;;;5.50;2.67;;;18.10;61.40;;;;;;4917218;29;20078;-76
2022/06/16 05:09:42;;;;;;;4.30;2.97;;;18.30;60.70;;;;;;4935007;28;20451;-77
2022/06/16 05:12:08;;;;;;;5.22;2.90;;;18.60;60.70;;;;;;4919109;29;20484;-76
2022/06/16 05:14:33;;;;;;;9.52;2.97;;;18.70;60.50;;;;;;4918759;28;20031;-76
2022/06/16 05:16:59;;;;;;;7.28;2.72;;;19.00;59.80;;;;;;4908669;28;20040;-77
2022/06/16 05:19:24;;;;;;;6.82;2.50;;;19.20;59.80;;;;;;4934709;28;20102;-76
2022/06/16 05:21:50;;;;;;;3.83;2.58;;;19.40;59.40;;;;;;4906812;28;20046;-77
2022/06/16 05:24:16;;;;;;;4.35;2.67;;;19.50;59.20;;;;;;4919128;29;20106;-76
2022/06/16 05:26:41;;;;;;;5.40;2.90;;;19.90;58.40;;;;;;4931895;29;20035;-77
2022/06/16 05:29:07;;;;;;;4.70;2.60;;;20.10;58.00;;;;;;4919339;28;20480;-77
2022/06/16 05:31:36;;;;;;;4.72;3.13;;;20.30;57.70;;;;;;4932782;28;20051;-77
2022/06/16 05:34:02;;;;;;;6.47;3.15;;;20.50;57.30;;;;;;4923763;29;20046;-77
2022/06/16 05:36:27;;;;;;;2.90;2.45;;;20.60;56.80;;;;;;4902664;28;20122;-77
2022/06/16 05:38:53;;;;;;;5.38;2.20;;;20.80;56.50;;;;;;4949494;28;20089;-77
2022/06/16 05:41:18;;;;;;;5.10;2.42;;;21.00;56.10;;;;;;4918814;28;20034;-77
2022/06/16 05:43:44;;;;;;;7.45;3.22;;;21.10;56.10;;;;;;4917959;29;20039;-77
2022/06/16 05:46:18;;;;;;;5.30;2.55;;;21.30;55.50;;;;;;4939539;28;20020;-77
2022/06/16 05:48:43;;;;;;;3.40;2.15;;;21.50;55.60;;;;;;4917531;29;20463;-76
2022/06/16 05:51:10;;;;;;;4.45;2.10;;;21.60;55.50;;;;;;4930862;28;20077;-77
2022/06/16 05:53:37;;;;;;;6.70;2.35;;;21.80;55.00;;;;;;4902460;28;20487;-77
2022/06/16 05:56:02;;;;;;;4.95;2.10;;;22.10;54.50;;;;;;4909371;28;20081;-77
2022/06/16 05:58:28;;;;;;;4.78;2.60;;;22.20;54.80;;;;;;4930122;28;20059;-77
2022/06/16 06:00:54;;;;;;;5.35;2.25;;;22.40;54.10;;;;;;4919824;29;20407;-77
2022/06/16 06:03:19;;;;;;;3.42;2.50;;;22.60;54.10;;;;;;4936422;28;20031;-77
2022/06/16 06:05:45;;;;;;;7.28;2.67;;;22.70;53.00;;;;;;4899538;28;20031;-77
2022/06/16 06:16:26;;;;;;;3.05;1.95;;;23.30;51.80;;;;;;4928020;28;20498;-77
2022/06/16 06:18:58;;;;;;;5.57;2.00;;;23.50;52.00;;;;;;4900664;29;20023;-77
2022/06/16 06:24:09;;;;;;;5.93;2.42;;;23.70;52.70;;;;;;4923222;28;20821;-77
2022/06/16 06:26:34;;;;;;;5.43;2.38;;;23.90;51.50;;;;;;4916405;28;20034;-77
2022/06/16 06:29:00;;;;;;;6.13;2.15;;;24.20;50.20;;;;;;4901732;29;20031;-77
2022/06/16 06:31:26;;;;;;;5.55;2.80;;;24.30;50.30;;;;;;4902726;28;20038;-77
2022/06/16 06:33:51;;;;;;;5.45;2.17;;;24.40;50.80;;;;;;4904266;28;20058;-79
2022/06/16 06:36:17;;;;;;;5.35;2.45;;;24.60;50.50;;;;;;4903125;28;20023;-79
2022/06/16 06:38:42;;;;;;;6.00;2.20;;;24.70;49.80;;;;;;4920568;28;20023;-79
2022/06/16 06:41:08;;;;;;;5.78;2.63;;;24.70;49.90;;;;;;4925069;28;20031;-79
2022/06/16 06:43:33;;;;;;;5.82;2.55;;;24.70;49.80;;;;;;4913362;28;20034;-79
2022/06/16 06:45:59;;;;;;;5.15;2.47;;;24.90;49.40;;;;;;4919842;28;20032;-79
2022/06/16 06:48:25;;;;;;;4.63;1.95;;;25.00;49.10;;;;;;4921922;28;20031;-79
2022/06/16 06:50:51;;;;;;;7.68;2.33;;;25.00;48.90;;;;;;4918867;28;20074;-77
2022/06/16 06:53:16;;;;;;;4.85;2.08;;;25.10;49.40;;;;;;4921542;28;20113;-77
2022/06/16 06:55:43;;;;;;;3.72;2.00;;;25.30;49.20;;;;;;4921554;28;20529;-77
2022/06/16 06:58:13;;;;;;;4.85;2.30;;;25.40;48.80;;;;;;4920151;28;20395;-77
2022/06/16 07:00:38;;;;;;;9.25;2.20;;;25.50;48.50;;;;;;4918889;28;20023;-79
2022/06/16 07:03:05;;;;;;;3.22;1.70;;;25.60;48.70;;;;;;4934306;28;20046;-79
2022/06/16 07:05:30;;;;;;;7.53;2.08;;;25.60;48.60;;;;;;4918950;28;20237;-79
2022/06/16 07:07:58;;;;;;;5.57;2.05;;;25.80;48.30;;;;;;4952445;28;20118;-79
2022/06/16 07:10:24;;;;;;;3.50;1.80;;;25.90;47.20;;;;;;4905950;29;20030;-79
2022/06/16 07:12:49;;;;;;;6.47;2.05;;;26.10;47.70;;;;;;4920692;28;20035;-77
2022/06/16 07:15:15;;;;;;;4.28;1.67;;;26.10;47.60;;;;;;4902798;28;20154;-77
2022/06/16 07:17:40;;;;;;;4.15;2.17;;;26.20;47.90;;;;;;4902921;28;20054;-77
2022/06/16 07:20:07;;;;;;;5.50;1.88;;;26.40;46.80;;;;;;4917982;29;20233;-77
2022/06/16 07:22:32;;;;;;;4.68;1.98;;;26.40;47.00;;;;;;4906307;28;20126;-78
2022/06/16 07:24:58;;;;;;;2.53;1.52;;;26.50;46.30;;;;;;4919741;28;20456;-77
2022/06/16 07:27:23;;;;;;;5.28;1.58;;;26.70;46.50;;;;;;4922876;28;20443;-77
2022/06/16 07:29:49;;;;;;;3.00;1.73;;;26.80;46.30;;;;;;4923805;29;20050;-78
2022/06/16 07:32:16;;;;;;;2.67;1.73;;;26.80;46.20;;;;;;4925462;28;20035;-78
2022/06/16 07:34:42;;;;;;;6.32;2.30;;;26.80;45.60;;;;;;4923128;28;20046;-78
2022/06/16 07:37:07;;;;;;;2.17;1.30;;;26.70;45.80;;;;;;4906192;28;20035;-78
2022/06/16 07:39:33;;;;;;;1.92;1.38;;;26.90;45.10;;;;;;4922339;28;20035;-78
2022/06/16 07:41:59;;;;;;;5.95;1.70;;;27.00;45.70;;;;;;4904757;28;20041;-78
2022/06/16 07:44:24;;;;;;;3.13;2.05;;;27.30;45.30;;;;;;4907697;28;20035;-78
2022/06/16 07:46:50;;;;;;;3.85;1.75;;;27.30;44.60;;;;;;4919011;28;20042;-78
2022/06/16 07:49:21;;;;;;;4.50;1.67;;;27.30;45.20;;;;;;4907588;29;20178;-78
2022/06/16 07:51:47;;;;;;;6.78;2.08;;;27.30;45.00;;;;;;4903168;29;20122;-78
2022/06/16 07:54:12;;;;;;;4.45;1.52;;;27.50;45.10;;;;;;4920303;29;20113;-78
2022/06/16 07:56:38;;;;;;;5.60;1.67;;;27.50;44.70;;;;;;4922659;28;20036;-79
2022/06/16 07:59:04;;;;;;;6.05;1.38;;;27.60;45.10;;;;;;4929373;28;20384;-80
2022/06/16 08:01:29;;;;;;;3.30;1.38;;;27.80;45.00;;;;;;4908494;28;20039;-81
2022/06/16 08:03:55;;;;;;;2.42;1.35;;;28.00;44.70;;;;;;4921524;29;20124;-80
2022/06/16 08:06:26;;;;;;;3.25;1.85;;;28.10;44.40;;;;;;4918549;29;20039;-80
2022/06/16 08:08:52;;;;;;;3.65;1.90;;;28.60;43.20;;;;;;4936005;28;20534;-80
2022/06/16 08:14:04;;;;;;;4.25;1.75;;;28.50;42.20;;;;;;4927530;28;20034;-80
2022/06/16 08:16:30;;;;;;;3.42;1.50;;;28.50;42.10;;;;;;4921883;28;20031;-80
2022/06/16 08:18:56;;;;;;;5.38;1.42;;;28.60;42.90;;;;;;4924095;28;20043;-80
2022/06/16 08:21:23;;;;;;;4.18;1.48;;;28.80;42.90;;;;;;4906541;28;20030;-81
2022/06/16 08:23:49;;;;;;;4.18;1.60;;;29.00;42.70;;;;;;4903040;28;20446;-81
2022/06/16 08:26:14;;;;;;;4.97;1.27;;;29.20;41.80;;;;;;4906496;28;20036;-81
2022/06/16 08:28:40;;;;;;;4.72;1.20;;;29.10;41.60;;;;;;4905527;28;20907;-81
2022/06/16 08:31:06;;;;;;;3.20;1.27;;;29.20;40.80;;;;;;4906106;28;20030;-81
2022/06/16 08:33:32;;;;;;;3.65;1.30;;;29.10;39.70;;;;;;4919437;28;20661;-81
2022/06/16 08:35:57;;;;;;;2.65;1.17;;;28.90;39.30;;;;;;4922482;28;20039;-81
2022/06/16 08:38:23;;;;;;;4.53;1.10;;;29.00;40.20;;;;;;4907119;28;20426;-81
2022/06/16 08:40:51;;;;;;;2.83;0.90;;;29.10;40.10;;;;;;4916948;28;20035;-82
2022/06/16 08:43:32;;;;;;;4.00;1.35;;;29.20;39.50;;;;;;4906956;29;20032;-82
2022/06/16 08:46:01;;;;;;;2.85;1.02;;;29.40;38.90;;;;;;4907526;28;20121;-82
2022/06/16 08:48:59;;;;;;;2.60;0.90;;;29.60;39.70;;;;;;4937417;28;20038;-83
2022/06/16 08:51:42;;;;;;;2.38;1.48;;;29.70;39.10;;;;;;4930726;28;20031;-82
2022/06/16 08:54:33;;;;;;;1.38;1.08;;;29.80;39.10;;;;;;4900096;29;20380;-83
2022/06/16 08:57:01;;;;;;;2.65;1.00;;;29.60;37.90;;;;;;4917704;28;20027;-82
2022/06/16 08:59:53;;;;;;;3.40;0.90;;;29.70;37.90;;;;;;4938965;28;20053;-83
2022/06/16 09:02:42;;;;;;;2.90;1.05;;;29.90;37.90;;;;;;4920297;29;20031;-83
2022/06/16 09:05:14;;;;;;;2.97;1.00;;;29.90;38.80;;;;;;4939208;28;20028;-83
2022/06/16 09:08:01;;;;;;;1.02;0.75;;;30.00;38.40;;;;;;4934263;28;20461;-83
2022/06/16 09:10:33;;;;;;;2.90;0.88;;;30.10;39.10;;;;;;4909555;28;20458;-83
2022/06/16 09:13:11;;;;;;;2.55;0.80;;;30.30;38.70;;;;;;4904400;29;20047;-83
2022/06/16 09:16:10;;;;;;;5.68;0.90;;;30.50;38.80;;;;;;4932888;28;20071;-84
2022/06/16 09:19:04;;;;;;;1.13;0.68;;;30.30;37.80;;;;;;4937024;28;20441;-84
2022/06/16 09:21:43;;;;;;;3.28;1.00;;;30.50;37.40;;;;;;4935529;28;20107;-84
2022/06/16 09:24:31;;;;;;;1.25;0.82;;;30.50;36.40;;;;;;4906907;28;20515;-85
2022/06/16 09:27:02;;;;;;;1.30;0.77;;;30.70;38.10;;;;;;4934202;28;20071;-85
2022/06/16 09:29:32;;;;;;;2.60;0.98;;;30.80;36.70;;;;;;4907713;29;20518;-85
2022/06/16 09:32:27;;;;;;;2.83;0.85;;;30.90;36.40;;;;;;4913924;28;20095;-85
2022/06/16 09:35:03;;;;;;;1.67;0.60;;;31.00;36.90;;;;;;4914371;29;20047;-85
2022/06/16 09:37:51;;;;;;;1.58;0.75;;;31.00;35.80;;;;;;4919556;28;20039;-85
2022/06/16 09:40:39;;;;;;;1.88;0.80;;;31.30;35.60;;;;;;4932231;28;20391;-86
2022/06/16 09:43:11;;;;;;;0.80;0.70;;;31.30;35.80;;;;;;4919957;28;20046;-85
2022/06/16 09:46:13;;;;;;;4.43;0.77;;;31.30;34.50;;;;;;4900970;28;20514;-85
2022/06/16 09:48:42;;;;;;;2.03;0.80;;;31.20;35.00;;;;;;4927627;28;20106;-85
2022/06/16 09:51:15;;;;;;;2.17;0.80;;;31.20;35.00;;;;;;4918504;28;20482;-84
2022/06/16 09:53:51;;;;;;;1.70;0.88;;;31.20;35.20;;;;;;4901803;29;20047;-82
2022/06/16 09:56:39;;;;;;;2.20;0.90;;;31.30;35.90;;;;;;4891069;29;20031;-81
2022/06/16 09:59:13;;;;;;;1.23;0.80;;;31.20;34.20;;;;;;4918494;28;20073;-81
2022/06/16 10:02:00;;;;;;;1.77;1.08;;;31.40;35.30;;;;;;4905978;28;20060;-80
2022/06/16 10:04:25;;;;;;;5.13;1.08;;;31.60;34.10;;;;;;4919548;28;20027;-80
2022/06/16 10:07:15;;;;;;;4.25;1.80;;;31.60;33.00;;;;;;4902169;28;20038;-81
2022/06/16 10:09:48;;;;;;;2.08;0.80;;;31.60;33.90;;;;;;4925953;28;20089;-80
2022/06/16 10:12:23;;;;;;;2.28;0.70;;;31.70;34.40;;;;;;4918960;29;20114;-79
2022/06/16 10:15:28;;;;;;;1.52;0.77;;;31.60;33.70;;;;;;4950523;28;20050;-79
2022/06/16 10:17:54;;;;;;;1.13;0.80;;;31.60;33.80;;;;;;4923139;28;20422;-79
2022/06/16 10:20:21;;;;;;;4.15;1.00;;;31.80;34.30;;;;;;4902686;29;20027;-79
2022/06/16 10:22:53;;;;;;;1.55;1.00;;;31.80;33.80;;;;;;4906584;28;20027;-79
2022/06/16 10:25:34;;;;;;;2.97;1.38;;;32.00;34.30;;;;;;4922838;28;20035;-78
2022/06/16 10:28:10;;;;;;;1.23;0.88;;;32.20;33.40;;;;;;4919484;29;20185;-79
2022/06/16 10:30:38;;;;;;;2.40;0.80;;;32.00;34.30;;;;;;4922122;28;20063;-79
2022/06/16 10:33:23;;;;;;;2.88;1.00;;;32.10;34.60;;;;;;4904121;28;20039;-79
2022/06/16 10:35:48;;;;;;;2.05;0.70;;;32.10;34.40;;;;;;4907878;28;20038;-79
2022/06/16 10:38:38;;;;;;;1.40;0.88;;;32.30;34.70;;;;;;4949562;28;20035;-76
2022/06/16 10:41:07;;;;;;;1.83;0.90;;;32.50;35.10;;;;;;4938913;28;20115;-76
2022/06/16 10:43:37;;;;;;;2.95;1.10;;;32.70;34.60;;;;;;4917721;28;20034;-75
2022/06/16 10:46:15;;;;;;;3.88;1.30;;;32.70;34.40;;;;;;4911470;29;20058;-76
2022/06/16 10:48:46;;;;;;;5.55;1.05;;;32.90;34.60;;;;;;4920059;28;20038;-75
2022/06/16 10:51:16;;;;;;;1.75;1.02;;;32.90;33.80;;;;;;4921787;28;20053;-75
2022/06/16 10:53:47;;;;;;;3.08;1.13;;;33.10;33.50;;;;;;4902988;29;20488;-76
2022/06/16 10:56:21;;;;;;;2.53;1.40;;;32.80;34.70;;;;;;4918926;29;20043;-76
2022/06/16 10:59:04;;;;;;;2.60;1.35;;;32.60;33.50;;;;;;4920675;28;20037;-76
2022/06/16 11:01:40;;;;;;;3.78;1.30;;;32.60;34.20;;;;;;4920160;28;20037;-76
2022/06/16 11:04:12;;;;;;;2.88;1.30;;;32.80;33.80;;;;;;4926543;28;20150;-77
2022/06/16 11:06:38;;;;;;;4.70;1.38;;;33.00;34.50;;;;;;4923457;28;20036;-76
2022/06/16 11:09:04;;;;;;;4.68;1.40;;;33.20;34.20;;;;;;4922927;28;20518;-77
2022/06/16 11:12:07;;;;;;;2.50;1.58;;;33.10;34.20;;;;;;4924629;28;20034;-76
2022/06/16 11:14:49;;;;;;;1.83;1.23;;;33.10;34.40;;;;;;4878145;29;20092;-77
2022/06/16 11:17:25;;;;;;;3.25;1.42;;;33.30;34.40;;;;;;4925891;29;21468;-76
2022/06/16 11:20:16;;;;;;;2.30;1.27;;;33.50;34.40;;;;;;4922750;28;20031;-76
2022/06/16 11:22:44;;;;;;;5.85;1.00;;;33.60;33.60;;;;;;4922492;28;20032;-77
2022/06/16 11:25:21;;;;;;;3.35;1.27;;;33.70;34.70;;;;;;4908295;29;20035;-77
2022/06/16 11:27:49;;;;;;;3.10;1.50;;;33.80;34.40;;;;;;4916805;28;20411;-76
2022/06/16 11:30:37;;;;;;;1.67;0.98;;;34.00;34.30;;;;;;4921861;28;20415;-77
2022/06/16 11:33:04;;;;;;;3.47;1.88;;;33.90;34.50;;;;;;4929448;28;20388;-77
2022/06/16 11:35:45;;;;;;;2.10;1.42;;;34.20;33.10;;;;;;4903884;28;20116;-76
2022/06/16 11:38:29;;;;;;;1.83;1.23;;;34.00;32.60;;;;;;4932458;29;20062;-77
2022/06/16 11:41:03;;;;;;;4.70;1.48;;;33.70;33.20;;;;;;4906751;28;20949;-76
2022/06/16 11:43:46;;;;;;;1.80;1.42;;;33.90;33.20;;;;;;4913924;28;20407;-77
2022/06/16 11:46:17;;;;;;;1.52;1.02;;;34.10;33.50;;;;;;4904961;29;20035;-76
2022/06/16 11:49:10;;;;;;;2.65;1.40;;;34.20;33.00;;;;;;4904469;28;20027;-77
2022/06/16 11:51:41;;;;;;;1.92;1.30;;;34.20;33.50;;;;;;4933977;28;20062;-77
2022/06/16 11:54:23;;;;;;;3.03;1.30;;;34.20;33.00;;;;;;4938215;28;20082;-77
2022/06/16 11:56:54;;;;;;;2.63;1.50;;;34.30;33.00;;;;;;4920185;28;20027;-77
2022/06/16 11:59:34;;;;;;;2.53;1.67;;;34.30;32.20;;;;;;4904715;29;20051;-77
2022/06/16 12:02:28;;;;;;;3.75;1.75;;;34.20;32.90;;;;;;4937573;28;20058;-76
2022/06/16 12:05:02;;;;;;;1.17;1.08;;;34.30;33.50;;;;;;4923838;28;20087;-76
2022/06/16 12:07:44;;;;;;;2.15;1.33;;;34.40;34.70;;;;;;4938348;28;20098;-76
2022/06/16 12:10:38;;;;;;;4.22;1.80;;;34.60;33.80;;;;;;4934845;28;20031;-76
2022/06/16 12:13:15;;;;;;;2.85;1.42;;;34.80;33.20;;;;;;4917704;28;20067;-76
2022/06/16 12:16:02;;;;;;;1.65;1.25;;;34.90;32.80;;;;;;4933213;28;20039;-76
2022/06/16 12:18:55;;;;;;;3.20;1.50;;;34.90;33.10;;;;;;4922896;28;20046;-76
2022/06/16 12:21:39;;;;;;;4.18;1.20;;;35.10;31.70;;;;;;4946136;28;20031;-76
2022/06/16 12:24:30;;;;;;;2.50;1.25;;;35.10;32.90;;;;;;4920647;28;20402;-76
2022/06/16 12:27:07;;;;;;;3.45;1.38;;;35.10;31.80;;;;;;4894359;29;20039;-76
2022/06/16 12:30:02;;;;;;;4.25;1.63;;;35.00;32.20;;;;;;4934806;28;20380;-75
2022/06/16 12:32:52;;;;;;;5.18;1.23;;;35.10;31.80;;;;;;4909334;28;20049;-76
2022/06/16 12:35:30;;;;;;;3.40;1.58;;;35.10;32.70;;;;;;4934884;28;20142;-77
2022/06/16 12:37:59;;;;;;;2.50;1.25;;;35.20;33.40;;;;;;4906778;28;20110;-76
2022/06/16 12:40:47;;;;;;;4.22;1.60;;;35.40;31.60;;;;;;4915060;28;20039;-76
2022/06/16 12:43:36;;;;;;;1.90;1.30;;;35.30;32.10;;;;;;4935432;28;20031;-76
2022/06/16 12:46:04;;;;;;;1.65;1.17;;;35.50;31.10;;;;;;4921402;29;20032;-76
2022/06/16 12:48:46;;;;;;;1.40;1.10;;;35.50;31.00;;;;;;4919096;28;20090;-76
2022/06/16 12:51:15;;;;;;;3.42;1.38;;;35.40;31.50;;;;;;4933951;28;20530;-77
2022/06/16 12:53:46;;;;;;;2.90;1.10;;;35.50;31.00;;;;;;4919171;28;20411;-76
2022/06/16 12:56:27;;;;;;;2.72;1.90;;;35.60;30.50;;;;;;4936806;29;20031;-76
2022/06/16 12:58:56;;;;;;;3.17;1.48;;;35.40;31.70;;;;;;4952071;28;20118;-76
2022/06/16 13:01:22;;;;;;;2.85;1.60;;;35.60;31.30;;;;;;4919998;28;20035;-76
2022/06/16 13:04:03;;;;;;;2.65;1.77;;;35.30;31.00;;;;;;4935264;28;20027;-76
2022/06/16 13:06:28;;;;;;;3.78;1.67;;;35.50;31.60;;;;;;4950539;28;20495;-76
2022/06/16 13:08:57;;;;;;;2.40;1.20;;;35.60;31.20;;;;;;4906556;29;20050;-75
2022/06/16 13:11:30;;;;;;;2.65;1.30;;;35.50;31.90;;;;;;4916395;29;20090;-75
2022/06/16 13:14:07;;;;;;;4.80;1.40;;;35.60;32.40;;;;;;4916484;29;20082;-76
2022/06/16 13:16:35;;;;;;;1.88;1.30;;;35.80;32.00;;;;;;4918814;28;20035;-76
2022/06/16 13:19:09;;;;;;;2.00;1.20;;;35.90;31.40;;;;;;4912115;29;20035;-74
2022/06/16 13:21:38;;;;;;;3.08;1.50;;;36.00;32.00;;;;;;4904460;28;20097;-76
2022/06/16 13:24:10;;;;;;;1.95;1.33;;;36.10;32.10;;;;;;4904487;28;20039;-75
2022/06/16 13:26:39;;;;;;;2.42;1.35;;;36.30;31.80;;;;;;4951356;28;20070;-76
2022/06/16 13:29:15;;;;;;;1.23;1.10;;;36.40;31.20;;;;;;4902641;28;20133;-77
2022/06/16 13:31:43;;;;;;;4.57;1.75;;;36.40;31.40;;;;;;4914219;28;20031;-75